Barney, Georgia
Current Conditions -  °F | °C
As of 12:35 PM on Thursday 23 Oct 2014 (Local Time) from KMGR Reporting Station
Clear Clear  
Wind Chill: 68°   Ceiling: Unl
Heat Index: 68°   Visibility: 10mi
Dew Point: 46°   Wind: 5mph
Humidity: 46%   Direction: 110°ESE
Pressure: 30.1"   Gusts: NA
Location:  31.01°N, 83.51°W
Report Text: KMGR 231635Z AUTO 11004KT 10SM CLR 20/08 A3010 RMK AO2
Loading
Personal Weather Stations






























Interactive Weather Map
Tropical Storm Tracking
New forecast layout! Learn more

10-Day Weather Forecast

Advertisements
Track Severe Weather on mobile